Time;durP1;ratioP1;P1;durP2;ratioP2;P2;SDS_P1;SDS_P2;PMS_P1;PMS_P2;Temp;Humidity;BMP_temperature;BMP_pressure;BME280_temperature;BME280_humidity;BME280_pressure;Samples;Min_cycle;Max_cycle;Signal;HPM_P1;HPM_P2
2022/01/03 00:00:57;;;;;;;24.38;13.48;;;;;;;;;;12550640;28;20059;-71
2022/01/03 00:06:59;;;;;;;19.08;12.93;;;;;;;;;;12549609;28;20466;-72
2022/01/03 00:16:29;;;;;;;18.10;11.18;;;;;;;;;;12726595;27;20485;-72
2022/01/03 00:22:36;;;;;;;17.58;12.13;;;;;;;;;;12738516;27;20031;-72
2022/01/03 00:28:47;;;;;;;16.42;10.68;;;;;;;;;;12738423;27;20031;-72
2022/01/03 00:34:50;;;;;;;23.50;14.32;;;;;;;;;;12719632;28;20047;-72
2022/01/03 00:40:52;;;;;;;23.20;14.48;;;;;;;;;;12719184;28;20038;-72
2022/01/03 00:46:55;;;;;;;28.55;17.33;;;;;;;;;;12737266;28;20039;-72
2022/01/03 00:52:56;;;;;;;27.23;16.00;;;;;;;;;;12737313;28;20039;-72
2022/01/03 00:59:10;;;;;;;13.32;9.32;;;;;;;;;;12736667;27;20042;-72
2022/01/03 01:05:12;;;;;;;18.08;12.65;;;;;;;;;;12718147;28;20477;-72
2022/01/03 01:11:15;;;;;;;15.82;11.27;;;;;;;;;;12717674;27;20060;-72
2022/01/03 01:17:19;;;;;;;12.10;8.45;;;;;;;;;;12717605;28;20035;-72
2022/01/03 01:23:23;;;;;;;17.27;12.30;;;;;;;;;;12708433;28;20042;-72
2022/01/03 01:29:26;;;;;;;18.33;12.77;;;;;;;;;;12666621;28;20047;-72
2022/01/03 01:35:36;;;;;;;18.20;13.60;;;;;;;;;;12665988;28;20036;-72
2022/01/03 01:41:44;;;;;;;15.70;11.70;;;;;;;;;;12683158;28;20301;-72
2022/01/03 01:47:47;;;;;;;14.60;11.50;;;;;;;;;;12682482;28;20040;-72
2022/01/03 01:53:51;;;;;;;17.23;11.18;;;;;;;;;;12665064;28;20043;-72
2022/01/03 02:00:04;;;;;;;15.20;10.45;;;;;;;;;;12665718;28;20036;-73
2022/01/03 02:06:21;;;;;;;12.43;9.55;;;;;;;;;;12683017;28;20028;-73
2022/01/03 02:12:27;;;;;;;12.40;8.98;;;;;;;;;;12680915;28;20055;-73
2022/01/03 02:18:30;;;;;;;14.38;9.90;;;;;;;;;;12700124;28;20522;-72
2022/01/03 02:24:32;;;;;;;19.27;11.90;;;;;;;;;;12680756;28;20035;-72
2022/01/03 02:30:35;;;;;;;15.40;11.20;;;;;;;;;;12680543;28;20031;-72
2022/01/03 02:36:37;;;;;;;19.50;13.23;;;;;;;;;;12679014;28;20051;-72
2022/01/03 02:42:39;;;;;;;15.73;11.63;;;;;;;;;;12680108;28;20487;-72
2022/01/03 02:48:41;;;;;;;17.23;13.00;;;;;;;;;;12679413;28;20035;-72
2022/01/03 02:54:44;;;;;;;17.80;12.73;;;;;;;;;;12679212;28;20043;-72
2022/01/03 03:00:48;;;;;;;23.63;15.60;;;;;;;;;;12678916;28;20473;-72
2022/01/03 03:06:56;;;;;;;18.08;12.40;;;;;;;;;;12678584;28;20038;-72
2022/01/03 03:12:58;;;;;;;20.23;11.93;;;;;;;;;;12677998;28;20066;-72
2022/01/03 03:19:03;;;;;;;32.22;19.52;;;;;;;;;;12696261;28;20039;-72
2022/01/03 03:25:11;;;;;;;24.73;16.83;;;;;;;;;;12661134;28;20044;-72
2022/01/03 03:31:14;;;;;;;16.95;12.30;;;;;;;;;;12677325;28;20051;-72
2022/01/03 03:37:17;;;;;;;19.77;12.95;;;;;;;;;;12677037;28;20027;-73
2022/01/03 03:43:22;;;;;;;18.92;13.23;;;;;;;;;;12677940;28;20484;-73
2022/01/03 03:49:25;;;;;;;18.02;12.63;;;;;;;;;;12659874;28;20491;-72
2022/01/03 03:55:28;;;;;;;22.52;15.82;;;;;;;;;;12676170;28;20035;-72
2022/01/03 04:01:30;;;;;;;22.55;14.43;;;;;;;;;;12676253;28;20032;-72
2022/01/03 04:07:34;;;;;;;25.63;16.75;;;;;;;;;;12676361;28;20202;-72
2022/01/03 04:13:36;;;;;;;53.50;28.25;;;;;;;;;;12675811;28;20078;-72
2022/01/03 04:19:40;;;;;;;33.35;20.90;;;;;;;;;;12693711;28;20035;-72
2022/01/03 04:25:42;;;;;;;32.80;19.02;;;;;;;;;;12675784;28;20046;-72
2022/01/03 04:31:44;;;;;;;27.43;18.50;;;;;;;;;;12693699;28;20054;-72
2022/01/03 04:37:46;;;;;;;22.13;16.33;;;;;;;;;;12675403;28;20058;-72
2022/01/03 04:43:47;;;;;;;21.83;14.60;;;;;;;;;;12676222;28;20034;-72
2022/01/03 04:49:50;;;;;;;20.27;14.88;;;;;;;;;;12658575;28;20044;-72
2022/01/03 04:55:53;;;;;;;19.40;13.45;;;;;;;;;;12658340;28;20044;-72
2022/01/03 05:01:55;;;;;;;17.20;12.05;;;;;;;;;;12700481;28;20042;-72
2022/01/03 05:07:57;;;;;;;;;;;;;;;;;;12667726;28;20031;-72
2022/01/03 05:13:59;;;;;;;15.88;12.00;;;;;;;;;;12683806;28;19926;-72
2022/01/03 05:20:01;;;;;;;16.33;13.52;;;;;;;;;;12683975;28;20035;-72
2022/01/03 05:26:05;;;;;;;16.05;12.25;;;;;;;;;;12683656;28;20213;-72
2022/01/03 05:32:07;;;;;;;19.30;14.70;;;;;;;;;;12666221;28;20512;-72
2022/01/03 05:38:10;;;;;;;25.40;17.90;;;;;;;;;;12682688;28;20058;-72
2022/01/03 05:44:13;;;;;;;19.77;14.05;;;;;;;;;;12682765;28;20039;-72
2022/01/03 05:50:16;;;;;;;19.83;14.63;;;;;;;;;;12682427;28;20047;-72
2022/01/03 05:56:18;;;;;;;16.08;12.75;;;;;;;;;;12665223;28;20039;-72
2022/01/03 06:02:20;;;;;;;15.63;13.05;;;;;;;;;;12700304;28;20024;-72
2022/01/03 06:08:24;;;;;;;16.65;13.52;;;;;;;;;;12700525;28;20035;-72
2022/01/03 06:14:27;;;;;;;18.87;14.97;;;;;;;;;;12680712;28;20059;-72
2022/01/03 06:20:28;;;;;;;15.53;13.33;;;;;;;;;;12680737;28;20273;-72
2022/01/03 06:26:31;;;;;;;14.68;12.90;;;;;;;;;;12680440;28;20034;-72
2022/01/03 06:32:33;;;;;;;18.43;15.63;;;;;;;;;;12680494;28;20047;-72
2022/01/03 06:38:35;;;;;;;16.58;14.40;;;;;;;;;;12663241;28;20038;-72
2022/01/03 06:44:38;;;;;;;15.80;13.05;;;;;;;;;;12680096;28;20043;-72
2022/01/03 06:50:40;;;;;;;22.25;18.05;;;;;;;;;;12678979;28;20032;-72
2022/01/03 06:56:43;;;;;;;16.13;14.53;;;;;;;;;;12678887;28;20039;-71
2022/01/03 07:02:45;;;;;;;14.98;12.77;;;;;;;;;;12662122;28;20296;-71
2022/01/03 07:08:48;;;;;;;16.63;12.52;;;;;;;;;;12696294;28;20027;-72
2022/01/03 07:21:30;;;;;;;15.27;12.45;;;;;;;;;;12586667;28;20029;-72
2022/01/03 07:27:31;;;;;;;18.33;16.35;;;;;;;;;;12586454;28;20508;-72
2022/01/03 07:33:33;;;;;;;28.17;22.02;;;;;;;;;;12585832;28;20052;-71
2022/01/03 07:39:35;;;;;;;22.90;19.77;;;;;;;;;;12584706;28;20486;-73
2022/01/03 07:45:36;;;;;;;21.20;18.88;;;;;;;;;;12567642;28;20398;-72
2022/01/03 07:51:38;;;;;;;153.82;44.03;;;;;;;;;;12584951;28;20047;-72
2022/01/03 07:57:40;;;;;;;19.10;14.95;;;;;;;;;;12567015;28;20036;-73
2022/01/03 08:03:42;;;;;;;16.50;14.80;;;;;;;;;;12584568;28;20043;-72
2022/01/03 08:09:44;;;;;;;20.08;17.05;;;;;;;;;;12583996;28;20060;-72
2022/01/03 08:15:45;;;;;;;16.85;13.07;;;;;;;;;;12583745;28;20036;-72
2022/01/03 08:21:47;;;;;;;16.25;13.57;;;;;;;;;;12575919;28;20032;-72
2022/01/03 08:27:49;;;;;;;14.25;12.75;;;;;;;;;;12549379;28;20433;-72
2022/01/03 08:33:50;;;;;;;13.63;12.20;;;;;;;;;;12550546;28;20041;-72
2022/01/03 08:39:53;;;;;;;13.32;11.90;;;;;;;;;;12549032;28;20048;-72
2022/01/03 08:45:55;;;;;;;25.05;22.40;;;;;;;;;;12549493;28;20036;-72
2022/01/03 08:51:57;;;;;;;19.73;17.65;;;;;;;;;;12548434;28;20456;-72
2022/01/03 08:57:58;;;;;;;26.65;22.73;;;;;;;;;;12548055;28;20038;-72
2022/01/03 09:04:00;;;;;;;21.75;18.30;;;;;;;;;;12547551;28;20033;-72
2022/01/03 09:10:02;;;;;;;21.80;19.60;;;;;;;;;;12547172;28;20053;-72
2022/01/03 09:16:07;;;;;;;19.20;16.85;;;;;;;;;;12548178;28;20466;-72
2022/01/03 09:22:15;;;;;;;21.45;19.15;;;;;;;;;;12547955;28;20409;-72
2022/01/03 09:29:02;;;;;;;28.60;25.50;;;;;;;;;;12547695;28;20045;-72
2022/01/03 09:34:38;;;;;;;24.98;22.35;;;;;;;;;;12546221;28;20051;-72
2022/01/03 09:40:40;;;;;;;20.80;18.75;;;;;;;;;;12546394;28;20050;-72
2022/01/03 09:46:43;;;;;;;29.67;26.50;;;;;;;;;;12546595;28;20386;-72
2022/01/03 09:52:46;;;;;;;24.55;22.13;;;;;;;;;;12546642;28;20055;-72
2022/01/03 09:58:50;;;;;;;32.97;29.48;;;;;;;;;;12546940;28;20478;-72
2022/01/03 10:04:52;;;;;;;40.90;24.00;;;;;;;;;;12528233;28;20037;-72
2022/01/03 10:10:54;;;;;;;25.13;22.40;;;;;;;;;;12527250;28;20060;-72
2022/01/03 10:16:55;;;;;;;19.95;17.85;;;;;;;;;;12544236;28;20032;-73
2022/01/03 10:23:14;;;;;;;18.70;16.70;;;;;;;;;;12545073;28;20039;-73
2022/01/03 10:29:20;;;;;;;27.17;23.83;;;;;;;;;;12543769;28;20033;-73
2022/01/03 10:35:22;;;;;;;19.38;17.42;;;;;;;;;;12543139;28;20044;-72
2022/01/03 10:41:24;;;;;;;19.00;17.08;;;;;;;;;;12543580;28;20052;-73
2022/01/03 10:47:30;;;;;;;17.80;16.00;;;;;;;;;;12542626;28;20037;-73
2022/01/03 10:53:32;;;;;;;31.58;28.30;;;;;;;;;;12542873;28;20048;-73
2022/01/03 10:59:36;;;;;;;23.88;21.30;;;;;;;;;;12526291;28;20044;-73
2022/01/03 11:05:39;;;;;;;23.98;21.48;;;;;;;;;;12544048;28;20045;-73
2022/01/03 11:11:41;;;;;;;32.67;29.20;;;;;;;;;;12525347;28;20056;-73
2022/01/03 11:17:43;;;;;;;29.80;26.55;;;;;;;;;;12542418;28;20033;-74
2022/01/03 11:23:46;;;;;;;31.63;28.25;;;;;;;;;;12543521;28;20379;-72
2022/01/03 11:29:48;;;;;;;;;;;;;;;;;;12541669;28;20112;-74
2022/01/03 11:35:50;;;;;;;26.60;23.10;;;;;;;;;;12541490;28;19920;-72
2022/01/03 11:41:53;;;;;;;27.25;23.75;;;;;;;;;;12542152;28;20044;-72
2022/01/03 11:47:55;;;;;;;24.38;21.60;;;;;;;;;;12543130;28;20037;-73
2022/01/03 11:53:57;;;;;;;22.05;19.80;;;;;;;;;;12542842;28;20052;-73
2022/01/03 12:06:36;;;;;;;23.00;19.55;;;;;;;;;;12551717;28;20037;-72
2022/01/03 12:12:39;;;;;;;28.80;25.52;;;;;;;;;;12551392;28;20061;-73
2022/01/03 12:18:41;;;;;;;;;;;;;;;;;;12533769;28;20032;-72
2022/01/03 12:24:44;;;;;;;21.80;18.98;;;;;;;;;;12550724;28;19916;-73
2022/01/03 12:30:56;;;;;;;22.52;19.00;;;;;;;;;;12532829;28;20620;-72
2022/01/03 12:37:18;;;;;;;20.70;18.48;;;;;;;;;;12548872;28;20037;-72
2022/01/03 12:43:33;;;;;;;24.65;20.70;;;;;;;;;;12549073;28;20044;-73
2022/01/03 12:49:35;;;;;;;19.20;16.25;;;;;;;;;;12548484;28;20040;-72
2022/01/03 12:55:43;;;;;;;21.25;18.45;;;;;;;;;;12548157;28;20036;-74
2022/01/03 13:01:45;;;;;;;15.90;14.30;;;;;;;;;;12549031;28;20390;-73
2022/01/03 13:07:47;;;;;;;17.20;15.40;;;;;;;;;;12548912;28;20500;-72
2022/01/03 13:13:53;;;;;;;18.27;16.20;;;;;;;;;;12548245;28;20521;-72
2022/01/03 13:19:59;;;;;;;18.80;16.88;;;;;;;;;;12530412;28;20021;-73
2022/01/03 13:26:04;;;;;;;16.40;14.60;;;;;;;;;;12548185;28;20041;-73
2022/01/03 13:32:06;;;;;;;16.42;14.70;;;;;;;;;;12529698;28;20041;-73
2022/01/03 13:38:18;;;;;;;18.23;16.30;;;;;;;;;;12546650;28;20478;-72
2022/01/03 13:44:25;;;;;;;20.95;18.10;;;;;;;;;;12548738;28;20043;-72
2022/01/03 13:50:28;;;;;;;18.00;16.10;;;;;;;;;;12547081;28;20052;-72
2022/01/03 13:56:40;;;;;;;19.45;17.38;;;;;;;;;;12545843;28;20025;-72
2022/01/03 14:02:43;;;;;;;19.13;16.40;;;;;;;;;;12544999;28;20033;-72
2022/01/03 14:08:45;;;;;;;21.37;19.07;;;;;;;;;;12528429;28;20037;-72
2022/01/03 14:14:48;;;;;;;18.38;16.40;;;;;;;;;;12544167;28;20052;-72
2022/01/03 14:20:50;;;;;;;21.02;17.35;;;;;;;;;;12527108;28;20044;-73
2022/01/03 14:26:55;;;;;;;19.02;17.13;;;;;;;;;;12543894;28;20033;-72
2022/01/03 14:32:58;;;;;;;20.02;17.98;;;;;;;;;;12545140;28;20041;-73
2022/01/03 14:39:00;;;;;;;19.30;16.92;;;;;;;;;;12543521;28;20033;-72
2022/01/03 14:45:09;;;;;;;20.08;17.00;;;;;;;;;;12545343;28;20029;-73
2022/01/03 14:51:12;;;;;;;19.38;16.95;;;;;;;;;;12543029;28;20052;-74
2022/01/03 14:57:14;;;;;;;;;;;;;;;;;;12544488;28;20048;-75
2022/01/03 15:03:16;;;;;;;18.70;16.67;;;;;;;;;;12544258;28;19915;-73
2022/01/03 15:09:17;;;;;;;21.00;17.92;;;;;;;;;;12543819;28;20286;-72
2022/01/03 15:15:19;;;;;;;20.02;15.63;;;;;;;;;;12526092;28;20049;-73
2022/01/03 15:21:21;;;;;;;22.37;19.90;;;;;;;;;;12526124;28;20467;-74
2022/01/03 15:27:23;;;;;;;21.83;17.98;;;;;;;;;;12543287;28;20056;-73
2022/01/03 15:33:25;;;;;;;20.90;18.67;;;;;;;;;;12547824;28;20036;-73
2022/01/03 15:39:26;;;;;;;34.65;21.90;;;;;;;;;;12535737;28;20064;-74
2022/01/03 15:45:28;;;;;;;21.60;18.58;;;;;;;;;;12535131;28;20029;-73
2022/01/03 15:51:30;;;;;;;21.43;19.13;;;;;;;;;;12534801;28;20044;-74
2022/01/03 15:57:36;;;;;;;22.38;19.98;;;;;;;;;;12551258;28;20390;-74
2022/01/03 16:03:37;;;;;;;21.35;19.13;;;;;;;;;;12551077;28;20029;-73
2022/01/03 16:09:39;;;;;;;22.38;20.02;;;;;;;;;;12551774;28;20513;-74
2022/01/03 16:15:41;;;;;;;22.00;18.63;;;;;;;;;;12551308;28;20048;-74
2022/01/03 16:21:44;;;;;;;32.50;27.10;;;;;;;;;;12550156;28;20029;-73
2022/01/03 16:27:46;;;;;;;27.27;24.38;;;;;;;;;;12549816;28;20047;-74
2022/01/03 16:33:48;;;;;;;26.50;23.70;;;;;;;;;;12549425;28;20033;-73
2022/01/03 16:39:51;;;;;;;25.98;23.17;;;;;;;;;;12550376;28;20459;-74
2022/01/03 16:45:53;;;;;;;;;;;;;;;;;;12548757;28;20048;-73
2022/01/03 16:51:54;;;;;;;21.50;19.20;;;;;;;;;;12548980;28;20329;-73
2022/01/03 16:57:56;;;;;;;29.52;26.42;;;;;;;;;;12548822;28;20028;-74
2022/01/03 17:03:58;;;;;;;25.67;22.92;;;;;;;;;;12548675;28;20398;-74
2022/01/03 17:10:00;;;;;;;26.20;23.15;;;;;;;;;;12531204;28;20049;-73
2022/01/03 17:16:01;;;;;;;26.60;23.90;;;;;;;;;;12547309;28;20041;-72
2022/01/03 17:22:04;;;;;;;25.48;22.42;;;;;;;;;;12531054;28;20037;-74
2022/01/03 17:28:06;;;;;;;24.17;21.57;;;;;;;;;;12547070;28;20463;-74
2022/01/03 17:34:07;;;;;;;24.53;22.07;;;;;;;;;;12546751;28;20049;-74
2022/01/03 17:40:10;;;;;;;23.23;20.77;;;;;;;;;;12545392;28;20463;-73
2022/01/03 17:46:12;;;;;;;38.42;34.60;;;;;;;;;;12530295;28;20048;-74
2022/01/03 17:52:14;;;;;;;31.07;27.67;;;;;;;;;;12546783;28;20037;-76
2022/01/03 17:58:17;;;;;;;25.88;23.17;;;;;;;;;;12546125;28;20645;-73
2022/01/03 18:04:19;;;;;;;25.63;23.02;;;;;;;;;;12545357;28;20033;-74
2022/01/03 18:10:21;;;;;;;25.90;23.30;;;;;;;;;;12544962;28;20071;-74
2022/01/03 18:16:24;;;;;;;22.30;19.90;;;;;;;;;;12546085;28;20033;-74
2022/01/03 18:22:25;;;;;;;28.40;25.40;;;;;;;;;;12544811;28;20035;-75
2022/01/03 18:28:28;;;;;;;29.95;26.73;;;;;;;;;;12544499;28;20044;-73
2022/01/03 18:34:29;;;;;;;29.30;26.20;;;;;;;;;;12527474;28;20051;-74
2022/01/03 18:40:33;;;;;;;35.17;31.48;;;;;;;;;;12527631;28;20398;-74
2022/01/03 18:46:38;;;;;;;25.10;22.58;;;;;;;;;;12543718;28;20040;-74
2022/01/03 18:52:40;;;;;;;29.33;26.35;;;;;;;;;;12544102;28;20509;-74
2022/01/03 18:58:42;;;;;;;29.73;25.90;;;;;;;;;;12526344;28;20040;-74
2022/01/03 19:04:44;;;;;;;25.35;22.73;;;;;;;;;;12542511;28;20033;-75
2022/01/03 19:10:46;;;;;;;36.42;32.83;;;;;;;;;;12525639;28;20060;-74
2022/01/03 19:16:48;;;;;;;31.13;27.90;;;;;;;;;;12525929;28;20386;-74
2022/01/03 19:22:51;;;;;;;26.80;24.07;;;;;;;;;;12542584;28;20041;-74
2022/01/03 19:28:53;;;;;;;31.05;27.42;;;;;;;;;;12543139;28;20029;-74
2022/01/03 19:41:16;;;;;;;29.55;26.55;;;;;;;;;;12542053;28;20033;-74
2022/01/03 19:47:19;;;;;;;30.25;26.98;;;;;;;;;;12543190;28;20282;-74
2022/01/03 19:53:21;;;;;;;28.27;25.25;;;;;;;;;;12525837;28;20051;-74
2022/01/03 19:59:24;;;;;;;26.35;23.50;;;;;;;;;;12543267;28;20037;-73
2022/01/03 20:05:30;;;;;;;28.30;25.48;;;;;;;;;;12542972;28;20033;-73
2022/01/03 20:11:32;;;;;;;25.95;23.30;;;;;;;;;;12524870;28;20049;-74
2022/01/03 20:17:35;;;;;;;26.13;23.27;;;;;;;;;;12542780;28;20029;-73
2022/01/03 20:23:40;;;;;;;29.00;25.90;;;;;;;;;;12551088;28;20529;-74
2022/01/03 20:29:42;;;;;;;24.65;22.15;;;;;;;;;;12550908;28;20513;-74
2022/01/03 20:35:44;;;;;;;29.90;26.52;;;;;;;;;;12532799;28;20055;-74
2022/01/03 20:41:46;;;;;;;26.05;23.27;;;;;;;;;;12549589;28;20482;-74
2022/01/03 20:47:48;;;;;;;26.05;23.27;;;;;;;;;;12550221;28;20044;-73
2022/01/03 20:53:50;;;;;;;28.73;25.73;;;;;;;;;;12550898;28;20045;-74
2022/01/03 20:59:51;;;;;;;29.00;25.88;;;;;;;;;;12549933;28;20398;-74
2022/01/03 21:05:53;;;;;;;29.38;24.92;;;;;;;;;;12549483;28;20516;-72
2022/01/03 21:11:55;;;;;;;29.50;26.50;;;;;;;;;;12547978;28;20072;-74
2022/01/03 21:17:59;;;;;;;28.98;25.88;;;;;;;;;;12547671;28;20033;-74
2022/01/03 21:24:01;;;;;;;27.35;24.38;;;;;;;;;;12547175;28;20044;-72
2022/01/03 21:30:03;;;;;;;24.98;22.25;;;;;;;;;;12548422;28;20497;-74
2022/01/03 21:36:05;;;;;;;26.45;23.55;;;;;;;;;;12547278;28;20041;-74
2022/01/03 21:42:07;;;;;;;27.25;23.05;;;;;;;;;;12547374;28;20105;-74
2022/01/03 21:48:09;;;;;;;33.13;29.02;;;;;;;;;;12546008;28;20047;-74
2022/01/03 21:54:10;;;;;;;24.92;22.33;;;;;;;;;;12547850;28;20516;-73
2022/01/03 22:00:13;;;;;;;25.75;23.02;;;;;;;;;;12546738;28;20493;-73
2022/01/03 22:06:39;;;;;;;26.08;23.40;;;;;;;;;;12546547;28;20052;-73
2022/01/03 22:12:41;;;;;;;26.63;23.38;;;;;;;;;;12545826;28;20045;-73
2022/01/03 22:18:43;;;;;;;27.67;24.73;;;;;;;;;;12546270;28;20044;-74
2022/01/03 22:24:45;;;;;;;36.70;24.73;;;;;;;;;;12546725;28;20478;-73
2022/01/03 22:30:47;;;;;;;28.75;25.65;;;;;;;;;;12544025;28;20033;-73
2022/01/03 22:36:49;;;;;;;26.10;22.08;;;;;;;;;;12544935;28;20490;-72
2022/01/03 22:42:51;;;;;;;30.35;24.77;;;;;;;;;;12543140;28;20040;-73
2022/01/03 22:48:53;;;;;;;25.63;23.00;;;;;;;;;;12544466;28;20037;-74
2022/01/03 22:54:55;;;;;;;27.87;24.87;;;;;;;;;;12543534;28;20045;-74
2022/01/03 23:00:57;;;;;;;25.75;22.85;;;;;;;;;;12542801;28;20243;-73
2022/01/03 23:06:59;;;;;;;23.92;21.52;;;;;;;;;;12525838;28;20037;-73
2022/01/03 23:13:00;;;;;;;24.38;21.20;;;;;;;;;;12542040;28;20462;-74
2022/01/03 23:19:02;;;;;;;23.63;21.13;;;;;;;;;;12543515;28;20222;-73
2022/01/03 23:25:04;;;;;;;24.67;22.00;;;;;;;;;;12543072;28;20060;-73
2022/01/03 23:31:06;;;;;;;22.75;18.90;;;;;;;;;;12543450;28;20045;-73
2022/01/03 23:37:08;;;;;;;21.75;18.83;;;;;;;;;;12543035;28;20037;-74
2022/01/03 23:43:10;;;;;;;23.77;21.25;;;;;;;;;;12542971;28;20394;-74
2022/01/03 23:49:11;;;;;;;21.42;17.85;;;;;;;;;;12541534;28;20488;-74
2022/01/03 23:55:13;;;;;;;21.90;18.35;;;;;;;;;;12549256;28;20053;-74
